| time (UTC) | temp C | wind direction | speed KPH | gust KPH | rain 1hr cm | rain 24hr cm | rain mn cm | humidity % | barometer mb |
| 20260506044536 | 9 | 314 | 4.8 | 17.7 | 0.00 | 0.00 | 0.00 | 69 | 1018.2 |
| 20260506043043 | 10 | 272 | 4.8 | 17.7 | 0.00 | 0.00 | 0.00 | 67 | 1017.9 |
| 20260506041537 | 10 | 299 | 4.8 | 17.7 | 0.00 | 0.00 | 0.00 | 67 | 1017.8 |
| 20260506040037 | 10 | 298 | 4.8 | 12.9 | 0.00 | 0.00 | 0.00 | 65 | 1017.4 |
| 20260506034543 | 11 | 350 | 3.2 | 16.1 | 0.00 | 0.00 | 0.00 | 65 | 1017.0 |
| 20260506033042 | 11 | 323 | 1.6 | 11.3 | 0.00 | 0.00 | 0.00 | 61 | 1016.8 |
| 20260506031537 | 12 | 267 | 3.2 | 9.7 | 0.00 | 0.00 | 0.00 | 60 | 1016.7 |
| 20260506030038 | 12 | 269 | 3.2 | 8.0 | 0.00 | 0.00 | 0.00 | 59 | 1016.5 |
| 20260506024545 | 13 | 202 | 1.6 | 12.9 | 0.00 | 0.00 | 0.00 | 57 | 1016.4 |
| 20260506023044 | 13 | 271 | 1.6 | 14.5 | 0.00 | 0.00 | 0.00 | 54 | 1016.2 |
| 20260506021541 | 13 | 232 | 4.8 | 8.0 | 0.00 | 0.00 | 0.00 | 54 | 1016.2 |
| 20260506020039 | 13 | 314 | 4.8 | 16.1 | 0.00 | 0.00 | 0.00 | 56 | 1016.2 |
| 20260506014538 | 14 | 233 | 4.8 | 11.3 | 0.00 | 0.00 | 0.00 | 54 | 1015.9 |
| 20260506013043 | 15 | 214 | 4.8 | 12.9 | 0.00 | 0.00 | 0.00 | 53 | 1015.7 |
| 20260506011540 | 15 | 240 | 3.2 | 12.9 | 0.00 | 0.00 | 0.00 | 55 | 1015.7 |
| 20260506010038 | 15 | 196 | 4.8 | 12.9 | 0.00 | 0.00 | 0.00 | 56 | 1015.7 |
| 20260506004537 | 15 | 221 | 6.4 | 16.1 | 0.00 | 0.00 | 0.00 | 57 | 1015.7 |
| 20260506003038 | 15 | 257 | 6.4 | 17.7 | 0.00 | 0.00 | 0.00 | 57 | 1015.7 |
| 20260506001542 | 16 | 293 | 8.0 | 14.5 | 0.00 | 0.00 | 0.00 | 54 | 1015.7 |
| 20260506000042 | 16 | 269 | 4.8 | 14.5 | 0.00 | 0.00 | 0.00 | 54 | 1015.6 |
| 20260505234544 | 17 | 341 | 3.2 | 6.4 | 0.00 | 0.00 | 0.00 | 52 | 1015.4 |
| 20260505233042 | 15 | 188 | 6.4 | 16.1 | 0.00 | 0.00 | 0.00 | 59 | 1015.4 |
| 20260505231544 | 16 | 193 | 9.7 | 16.1 | 0.00 | 0.00 | 0.00 | 56 | 1015.4 |
| 20260505230053 | 16 | 159 | 4.8 | 12.9 | 0.00 | 0.00 | 0.00 | 53 | 1015.2 |
| 20260505224537 | 16 | 202 | 4.8 | 12.9 | 0.00 | 0.00 | 0.00 | 53 | 1015.3 |
| 20260505223039 | 16 | 220 | 8.0 | 17.7 | 0.00 | 0.00 | 0.00 | 54 | 1015.3 |
| 20260505221545 | 16 | 182 | 9.7 | 22.5 | 0.00 | 0.00 | 0.00 | 54 | 1015.3 |
| 20260505220046 | 17 | 211 | 8.0 | 16.1 | 0.00 | 0.00 | 0.00 | 55 | 1015.1 |
| 20260505214544 | 16 | 176 | 9.7 | 19.3 | 0.00 | 0.00 | 0.00 | 54 | 1015.2 |
| 20260505213053 | 17 | 157 | 6.4 | 16.1 | 0.00 | 0.00 | 0.00 | 53 | 1015.1 |
| 20260505211539 | 17 | 175 | 4.8 | 16.1 | 0.00 | 0.00 | 0.00 | 55 | 1015.0 |
| 20260505210043 | 18 | 237 | 8.0 | 16.1 | 0.00 | 0.00 | 0.00 | 53 | 1014.7 |
| 20260505204542 | 18 | 213 | 6.4 | 14.5 | 0.00 | 0.00 | 0.00 | 54 | 1014.5 |
| 20260505203039 | 17 | 168 | 6.4 | 12.9 | 0.00 | 0.00 | 0.00 | 53 | 1014.4 |
| 20260505201543 | 17 | 166 | 3.2 | 12.9 | 0.00 | 0.00 | 0.00 | 54 | 1014.3 |
| 20260505200047 | 17 | 161 | 3.2 | 8.0 | 0.00 | 0.00 | 0.00 | 54 | 1014.2 |
| 20260505194546 | 17 | 348 | 4.8 | 9.7 | 0.00 | 0.00 | 0.00 | 53 | 1014.1 |
| 20260505193043 | 17 | 294 | 4.8 | 9.7 | 0.00 | 0.00 | 0.00 | 55 | 1014.1 |
| 20260505191606 | 17 | 265 | 3.2 | 8.0 | 0.00 | 0.00 | 0.00 | 57 | 1014.2 |
| 20260505190049 | 17 | 261 | 4.8 | 11.3 | 0.00 | 0.00 | 0.00 | 55 | 1014.0 |
| 20260505184539 | 17 | 310 | 3.2 | 12.9 | 0.00 | 0.00 | 0.00 | 57 | 1013.9 |
| 20260505183043 | 17 | 236 | 4.8 | 14.5 | 0.00 | 0.00 | 0.00 | 57 | 1013.8 |
| 20260505181542 | 17 | 317 | 1.6 | 6.4 | 0.00 | 0.00 | 0.00 | 57 | 1013.7 |
| 20260505180059 | 16 | 254 | 1.6 | 4.8 | 0.00 | 0.00 | 0.00 | 59 | 1013.5 |
| 20260505174551 | 16 | 0 | 3.2 | 6.4 | 0.00 | 0.00 | 0.00 | 60 | 1013.5 |
| 20260505173041 | 15 | 150 | 3.2 | 8.0 | 0.00 | 0.00 | 0.00 | 65 | 1013.4 |
| 20260505171536 | 15 | 180 | 3.2 | 8.0 | 0.00 | 0.00 | 0.00 | 63 | 1013.3 |
| 20260505170039 | 15 | 186 | 3.2 | 8.0 | 0.00 | 0.00 | 0.00 | 65 | 1013.2 |
| 20260505164540 | 15 | 173 | 3.2 | 9.7 | 0.00 | 0.00 | 0.00 | 66 | 1013.2 |
| 20260505163037 | 14 | 227 | 1.6 | 6.4 | 0.00 | 0.00 | 0.00 | 69 | 1013.0 |
| 20260505161540 | 14 | 292 | 1.6 | 6.4 | 0.00 | 0.00 | 0.00 | 71 | 1013.1 |
| 20260505153042 | 12 | 136 | 0.0 | 3.2 | 0.00 | 0.00 | 0.00 | 78 | 1012.7 |
| 20260505151543 | 11 | 0 | 0.0 | 0.0 | 0.00 | 0.00 | 0.00 | 81 | 1012.8 |
| 20260505124545 | 7 | 0 | 0.0 | 0.0 | 0.00 | 0.00 | 0.00 | 88 | 1011.3 |
| 20260505123040 | 7 | 0 | 0.0 | 0.0 | 0.00 | 0.00 | 0.00 | 88 | 1011.3 |
| 20260505121539 | 7 | 0 | 0.0 | 0.0 | 0.00 | 0.00 | 0.00 | 87 | 1011.3 |
| 20260505120035 | 7 | 0 | 0.0 | 0.0 | 0.00 | 0.00 | 0.00 | 86 | 1011.4 |
| 20260505114536 | 8 | 291 | 0.0 | 1.6 | 0.00 | 0.00 | 0.00 | 86 | 1011.5 |
| 20260505113050 | 7 | 0 | 0.0 | 0.0 | 0.00 | 0.00 | 0.00 | 87 | 1011.4 |
| 20260505111540 | 7 | 0 | 0.0 | 0.0 | 0.00 | 0.00 | 0.00 | 87 | 1011.4 |
| 20260505101558 | 8 | 291 | 0.0 | 3.2 | 0.00 | 0.00 | 0.00 | 84 | 1011.4 |
| 20260505100058 | 8 | 0 | 0.0 | 1.6 | 0.00 | 0.00 | 0.00 | 80 | 1011.3 |
| 20260505094540 | 10 | 291 | 0.0 | 1.6 | 0.00 | 0.00 | 0.00 | 80 | 1011.4 |
| 20260505093040 | 10 | 0 | 0.0 | 1.6 | 0.00 | 0.00 | 0.00 | 82 | 1011.3 |
| 20260505091536 | 9 | 0 | 0.0 | 0.0 | 0.00 | 0.00 | 0.00 | 83 | 1011.1 |
| 20260505090041 | 9 | 0 | 0.0 | 3.2 | 0.00 | 0.00 | 0.00 | 83 | 1011.0 |
| 20260505084538 | 9 | 0 | 0.0 | 0.0 | 0.00 | 0.00 | 0.00 | 83 | 1011.0 |
| 20260505083040 | 10 | 0 | 0.0 | 0.0 | 0.00 | 0.00 | 0.00 | 81 | 1011.0 |
| 20260505081546 | 11 | 0 | 0.0 | 3.2 | 0.00 | 0.00 | 0.00 | 80 | 1011.1 |
| 20260505080046 | 11 | 0 | 0.0 | 0.0 | 0.00 | 0.00 | 0.00 | 78 | 1010.9 |
| 20260505074542 | 11 | 0 | 0.0 | 0.0 | 0.00 | 0.00 | 0.00 | 79 | 1010.9 |
| 20260505073041 | 11 | 0 | 0.0 | 1.6 | 0.00 | 0.00 | 0.00 | 80 | 1011.0 |
| 20260505071548 | 11 | 0 | 0.0 | 0.0 | 0.00 | 0.00 | 0.00 | 79 | 1011.1 |
| 20260505070040 | 12 | 0 | 0.0 | 0.0 | 0.00 | 0.00 | 0.00 | 75 | 1011.2 |
| 20260505064538 | 12 | 291 | 1.6 | 3.2 | 0.00 | 0.00 | 0.00 | 75 | 1011.2 |
| 20260505063049 | 12 | 0 | 0.0 | 3.2 | 0.00 | 0.00 | 0.00 | 73 | 1011.2 |
| 20260505061545 | 12 | 0 | 0.0 | 0.0 | 0.00 | 0.00 | 0.00 | 75 | 1011.0 |
| 20260505060043 | 12 | 0 | 0.0 | 0.0 | 0.00 | 0.00 | 0.00 | 74 | 1011.0 |
| 20260505054546 | 12 | 0 | 0.0 | 0.0 | 0.00 | 0.00 | 0.00 | 71 | 1011.1 |
| 20260505053048 | 13 | 0 | 0.0 | 4.8 | 0.00 | 0.00 | 0.00 | 68 | 1011.1 |
| 20260505051544 | 13 | 0 | 0.0 | 0.0 | 0.00 | 0.00 | 0.00 | 71 | 1011.1 |